createdAt,value
2018-03-26T00:01:13.705Z,79.02
2018-03-26T00:03:39.722Z,80.36
2018-03-26T00:06:05.733Z,80.05
2018-03-26T00:08:31.756Z,79.68
2018-03-26T00:10:57.765Z,80.26
2018-03-26T00:13:23.838Z,80.87
2018-03-26T00:15:49.849Z,81.45
2018-03-26T00:18:16.010Z,82.68
2018-03-26T00:20:42.013Z,81.55
2018-03-26T00:23:08.050Z,80.77
2018-03-26T00:25:34.068Z,80.37
2018-03-26T00:28:00.046Z,80.58
2018-03-26T00:30:26.092Z,79.92
2018-03-26T00:32:52.132Z,80.00
2018-03-26T00:35:18.084Z,81.16
2018-03-26T00:37:44.120Z,81.11
2018-03-26T00:40:10.161Z,80.77
2018-03-26T00:42:36.142Z,79.90
2018-03-26T00:45:02.198Z,79.85
2018-03-26T00:47:28.222Z,78.90
2018-03-26T00:49:54.243Z,79.13
2018-03-26T00:52:20.329Z,78.93
2018-03-26T00:54:46.346Z,79.16
2018-03-26T00:57:12.338Z,78.48
2018-03-26T00:59:38.358Z,78.53
2018-03-26T01:02:04.364Z,78.97
2018-03-26T01:04:30.384Z,78.87
2018-03-26T01:06:56.644Z,79.28
2018-03-26T01:09:22.669Z,79.64
2018-03-26T01:11:48.689Z,80.16
2018-03-26T01:14:14.753Z,80.07
2018-03-26T01:16:40.777Z,81.12
2018-03-26T01:19:06.801Z,80.95
2018-03-26T01:21:32.838Z,81.07
2018-03-26T01:23:58.852Z,80.37
2018-03-26T01:26:24.930Z,80.59
2018-03-26T01:28:50.957Z,80.78
2018-03-26T01:31:16.996Z,80.07
2018-03-26T01:33:43.048Z,79.62
2018-03-26T01:36:09.169Z,79.75
2018-03-26T01:38:35.192Z,79.45
2018-03-26T01:41:01.247Z,80.09
2018-03-26T01:43:27.250Z,79.54
2018-03-26T01:45:53.270Z,79.09
2018-03-26T01:48:19.282Z,79.06
2018-03-26T01:50:45.306Z,78.78
2018-03-26T01:53:11.310Z,79.05
2018-03-26T01:55:37.313Z,80.45
2018-03-26T01:58:03.392Z,80.98
2018-03-26T02:00:29.407Z,80.87
2018-03-26T02:02:55.446Z,80.32
2018-03-26T02:05:21.459Z,79.55
2018-03-26T02:07:47.499Z,80.18
2018-03-26T02:10:13.470Z,79.91
2018-03-26T02:12:39.550Z,79.45
2018-03-26T02:15:05.652Z,78.78
2018-03-26T02:17:31.720Z,79.06
2018-03-26T02:19:57.809Z,80.30
2018-03-26T02:22:23.839Z,80.77
2018-03-26T02:24:49.824Z,80.87
2018-03-26T02:27:15.879Z,80.29
2018-03-26T02:29:41.917Z,81.07
2018-03-26T02:32:07.950Z,81.56
2018-03-26T02:34:33.967Z,82.85
2018-03-26T02:37:00.013Z,83.79
2018-03-26T02:39:26.056Z,84.00
2018-03-26T02:41:52.038Z,84.25
2018-03-26T02:44:18.090Z,82.64
2018-03-26T02:46:44.100Z,82.96
2018-03-26T02:49:10.150Z,83.37
2018-03-26T02:51:36.242Z,82.67
2018-03-26T02:54:02.254Z,82.11
2018-03-26T02:56:28.274Z,81.60
2018-03-26T02:58:54.310Z,82.61
2018-03-26T03:01:20.341Z,82.91
2018-03-26T03:03:46.313Z,83.13
2018-03-26T03:06:12.334Z,82.80
2018-03-26T03:08:38.294Z,82.75
2018-03-26T03:11:04.286Z,83.42
2018-03-26T03:13:30.313Z,83.43
2018-03-26T03:15:56.317Z,82.70
2018-03-26T03:18:22.347Z,82.36
2018-03-26T03:20:48.403Z,82.12
2018-03-26T03:23:14.478Z,82.03
2018-03-26T03:25:40.481Z,81.72
2018-03-26T03:28:06.488Z,82.35
2018-03-26T03:30:32.542Z,82.55
2018-03-26T03:32:58.550Z,82.42
2018-03-26T03:35:24.536Z,82.98
2018-03-26T03:37:50.545Z,83.63
2018-03-26T03:40:16.588Z,83.89
2018-03-26T03:42:42.617Z,83.27
2018-03-26T03:45:08.654Z,82.26
2018-03-26T03:47:34.686Z,83.06
2018-03-26T03:50:00.758Z,82.50
2018-03-26T03:52:26.783Z,82.41
2018-03-26T03:54:52.821Z,82.19
2018-03-26T03:57:18.856Z,82.16
2018-03-26T03:59:44.857Z,81.87
2018-03-26T04:02:10.878Z,82.22
2018-03-26T04:04:36.841Z,81.78
2018-03-26T04:07:02.823Z,82.26
2018-03-26T04:09:28.876Z,82.70
2018-03-26T04:11:54.882Z,82.48
2018-03-26T04:14:20.902Z,81.74
2018-03-26T04:16:46.904Z,82.46
2018-03-26T04:19:12.923Z,83.85
2018-03-26T04:21:38.968Z,83.48
2018-03-26T04:24:04.957Z,83.12
2018-03-26T04:26:30.908Z,82.92
2018-03-26T04:28:56.949Z,83.09
2018-03-26T04:31:22.948Z,83.03
2018-03-26T04:33:49.002Z,83.35
2018-03-26T04:36:15.019Z,82.40
2018-03-26T04:38:40.961Z,82.47
2018-03-26T04:41:07.008Z,83.08
2018-03-26T04:43:32.958Z,82.63
2018-03-26T04:45:58.969Z,82.30
2018-03-26T04:48:25.074Z,81.53
2018-03-26T04:50:51.138Z,81.35
2018-03-26T04:53:17.162Z,82.19
2018-03-26T04:55:43.158Z,82.32
2018-03-26T04:58:09.223Z,82.36
2018-03-26T05:00:35.224Z,82.66
2018-03-26T05:03:01.257Z,82.30
2018-03-26T05:05:27.269Z,82.60
2018-03-26T05:07:53.301Z,82.82
2018-03-26T05:10:19.261Z,82.63
2018-03-26T05:12:45.265Z,82.30
2018-03-26T05:15:11.253Z,82.22
2018-03-26T05:17:37.319Z,82.05
2018-03-26T05:20:03.725Z,82.33
2018-03-26T05:22:29.726Z,82.15
2018-03-26T05:24:55.778Z,82.66
2018-03-26T05:27:21.746Z,83.10
2018-03-26T05:29:47.890Z,82.81
2018-03-26T05:32:13.861Z,82.98
2018-03-26T05:34:39.913Z,83.07
2018-03-26T05:37:05.946Z,82.28
2018-03-26T05:39:31.933Z,83.47
2018-03-26T05:41:57.931Z,85.16
2018-03-26T05:44:23.953Z,85.69
2018-03-26T05:46:49.985Z,84.85
2018-03-26T05:49:16.049Z,83.81
2018-03-26T05:51:42.145Z,84.01
2018-03-26T05:54:08.166Z,83.95
2018-03-26T05:56:34.178Z,83.74
2018-03-26T05:59:00.239Z,84.87
2018-03-26T06:01:26.245Z,84.04
2018-03-26T06:03:52.345Z,82.79
2018-03-26T06:06:18.337Z,83.96
2018-03-26T06:08:44.470Z,85.18
2018-03-26T06:11:10.441Z,84.52
2018-03-26T06:13:36.469Z,83.17
2018-03-26T06:16:02.508Z,84.10
2018-03-26T06:18:28.562Z,84.32
2018-03-26T06:20:54.617Z,83.47
2018-03-26T06:23:20.648Z,83.61
2018-03-26T06:25:46.748Z,83.34
2018-03-26T06:28:12.838Z,84.17
2018-03-26T06:30:38.933Z,85.02
2018-03-26T06:33:05.020Z,84.69
2018-03-26T06:35:31.088Z,84.36
2018-03-26T06:40:59.171Z,85.62
2018-03-26T06:43:25.198Z,85.37
2018-03-26T06:45:51.240Z,85.76
2018-03-26T06:48:17.209Z,85.73
2018-03-26T06:50:43.224Z,85.98
2018-03-26T06:53:09.250Z,86.05
2018-03-26T06:55:35.304Z,86.18
2018-03-26T06:58:01.340Z,85.73
2018-03-26T07:00:27.555Z,85.42
2018-03-26T07:02:53.612Z,85.21
2018-03-26T07:05:19.692Z,84.55
2018-03-26T07:07:45.805Z,84.26
2018-03-26T07:10:11.821Z,84.38
2018-03-26T07:12:37.863Z,84.37
2018-03-26T07:15:04.147Z,84.21
2018-03-26T07:17:30.142Z,84.07
2018-03-26T07:19:56.210Z,84.37
2018-03-26T07:22:22.231Z,82.97
2018-03-26T07:24:48.243Z,83.26
2018-03-26T07:27:14.220Z,83.31
2018-03-26T07:29:40.281Z,83.68
2018-03-26T07:32:06.329Z,83.68
2018-03-26T07:34:32.525Z,84.07
2018-03-26T07:36:58.590Z,83.67
2018-03-26T07:39:24.654Z,83.32
2018-03-26T07:41:50.714Z,83.29
2018-03-26T07:44:16.814Z,83.71
2018-03-26T07:46:42.844Z,83.13
2018-03-26T07:49:08.886Z,82.74
2018-03-26T07:51:34.906Z,83.23
2018-03-26T07:54:00.921Z,83.08
2018-03-26T07:56:26.969Z,83.52
2018-03-26T07:58:52.966Z,83.21
2018-03-26T08:01:19.016Z,82.60
2018-03-26T08:03:45.033Z,82.29
2018-03-26T08:06:11.065Z,81.82
2018-03-26T08:08:37.101Z,81.37
2018-03-26T08:11:03.225Z,81.46
2018-03-26T08:13:29.194Z,80.21
2018-03-26T08:15:55.191Z,79.28
2018-03-26T08:18:21.209Z,79.43
2018-03-26T08:20:47.238Z,79.19
2018-03-26T08:23:13.242Z,79.43
2018-03-26T08:25:39.276Z,79.82
2018-03-26T08:28:05.307Z,80.50
2018-03-26T08:30:31.334Z,80.74
2018-03-26T08:32:57.377Z,80.81
2018-03-26T08:35:23.432Z,81.51
2018-03-26T08:37:49.388Z,81.33
2018-03-26T08:40:15.389Z,81.16
2018-03-26T08:42:41.418Z,80.62
2018-03-26T08:45:07.458Z,79.41
2018-03-26T08:47:33.447Z,79.37
2018-03-26T08:49:59.594Z,79.07
2018-03-26T08:52:25.540Z,79.71
2018-03-26T08:54:51.580Z,79.86
2018-03-26T08:57:17.605Z,79.67
2018-03-26T08:59:43.582Z,80.02
2018-03-26T09:02:09.633Z,79.64
2018-03-26T09:04:35.656Z,79.63
2018-03-26T09:07:01.702Z,79.68
2018-03-26T09:09:27.716Z,79.86
2018-03-26T09:11:53.781Z,79.76
2018-03-26T09:14:19.765Z,79.31
2018-03-26T09:16:45.793Z,79.83
2018-03-26T09:19:11.806Z,79.22
2018-03-26T09:21:37.909Z,78.79
2018-03-26T09:24:04.015Z,78.49
2018-03-26T09:26:30.039Z,78.47
2018-03-26T09:28:56.085Z,76.79
2018-03-26T09:31:22.152Z,76.13
2018-03-26T09:33:48.201Z,76.53
2018-03-26T09:36:14.280Z,76.81
2018-03-26T09:38:40.302Z,76.25
2018-03-26T09:41:06.345Z,75.88
2018-03-26T09:43:32.374Z,74.40
2018-03-26T09:45:58.425Z,74.02
2018-03-26T09:48:24.422Z,73.94
2018-03-26T09:50:50.464Z,73.86
2018-03-26T09:53:16.560Z,73.57
2018-03-26T09:55:42.548Z,71.99
2018-03-26T09:58:08.521Z,70.88
2018-03-26T10:00:40.818Z,70.45
2018-03-26T10:03:06.848Z,69.49
2018-03-26T10:05:32.885Z,69.73
2018-03-26T10:07:58.872Z,69.15
2018-03-26T10:10:24.885Z,68.91
2018-03-26T10:12:50.921Z,69.14
2018-03-26T10:15:16.985Z,67.67
2018-03-26T10:17:43.057Z,67.08
2018-03-26T10:20:09.159Z,66.09
2018-03-26T10:22:35.228Z,65.54
2018-03-26T10:25:08.233Z,63.97
2018-03-26T10:30:07.080Z,63.89
2018-03-26T10:32:33.078Z,61.38
2018-03-26T10:34:59.109Z,59.23
2018-03-26T10:37:25.181Z,58.50
2018-03-26T10:39:51.198Z,60.07
2018-03-26T10:42:17.205Z,59.80
2018-03-26T10:44:43.224Z,59.53
2018-03-26T10:47:09.254Z,58.09
2018-03-26T10:49:35.330Z,57.30
2018-03-26T10:52:01.317Z,56.58
2018-03-26T10:54:27.519Z,54.40
2018-03-26T10:56:53.600Z,52.85
2018-03-26T10:59:19.638Z,53.73
2018-03-26T11:01:45.729Z,54.40
2018-03-26T11:04:11.784Z,53.49
2018-03-26T11:06:37.782Z,53.27
2018-03-26T11:09:03.777Z,54.67
2018-03-26T11:11:29.841Z,54.14
2018-03-26T11:13:55.866Z,53.29
2018-03-26T11:16:21.948Z,53.49
2018-03-26T11:18:48.089Z,52.94
2018-03-26T11:21:14.212Z,52.05
2018-03-26T11:23:40.244Z,50.60
2018-03-26T11:26:06.278Z,50.01
2018-03-26T11:28:32.281Z,51.64
2018-03-26T11:30:58.357Z,51.26
2018-03-26T11:33:24.386Z,51.44
2018-03-26T11:35:50.468Z,51.38
2018-03-26T11:38:16.558Z,50.47
2018-03-26T11:40:42.569Z,49.44
2018-03-26T11:43:09.142Z,50.20
2018-03-26T11:45:35.171Z,49.28
2018-03-26T11:48:01.183Z,49.26
2018-03-26T11:50:27.214Z,47.89
2018-03-26T11:52:53.241Z,47.60
2018-03-26T11:55:19.321Z,48.40
2018-03-26T11:57:45.346Z,47.52
2018-03-26T12:00:11.376Z,47.42
2018-03-26T12:02:37.393Z,47.43
2018-03-26T12:05:04.176Z,48.26
2018-03-26T12:07:30.174Z,49.07
2018-03-26T12:09:56.157Z,47.81
2018-03-26T12:12:22.181Z,46.59
2018-03-26T12:14:48.249Z,47.04
2018-03-26T12:17:14.275Z,47.76
2018-03-26T12:19:52.611Z,48.54
2018-03-26T12:22:18.645Z,48.75
2018-03-26T12:24:55.637Z,48.44
2018-03-26T12:27:21.717Z,47.94
2018-03-26T12:30:00.101Z,48.58
2018-03-26T12:32:26.183Z,49.38
2018-03-26T12:35:04.659Z,48.67
2018-03-26T12:37:30.715Z,48.91
2018-03-26T12:39:56.851Z,49.57
2018-03-26T12:42:22.927Z,49.49
2018-03-26T12:45:01.060Z,49.38
2018-03-26T12:47:27.085Z,49.66
2018-03-26T12:49:53.349Z,50.36
2018-03-26T12:52:31.522Z,49.44
2018-03-26T12:54:57.532Z,49.66
2018-03-26T12:57:35.779Z,49.15
2018-03-26T13:02:20.078Z,49.22
2018-03-26T13:04:46.124Z,48.75
2018-03-26T13:07:12.360Z,49.17
2018-03-26T13:09:38.466Z,49.07
2018-03-26T13:12:04.547Z,49.02
2018-03-26T13:14:30.598Z,49.37
2018-03-26T13:16:57.197Z,49.39
2018-03-26T13:19:23.243Z,49.42
2018-03-26T13:21:49.262Z,50.64
2018-03-26T13:24:15.302Z,48.81
2018-03-26T13:26:41.354Z,49.95
2018-03-26T13:29:07.407Z,49.20
2018-03-26T13:31:33.460Z,48.67
2018-03-26T13:33:59.491Z,49.40
2018-03-26T13:36:25.567Z,49.74
2018-03-26T13:38:51.626Z,50.04
2018-03-26T13:44:08.481Z,49.32
2018-03-26T13:49:47.382Z,49.51
2018-03-26T13:52:13.500Z,47.35
2018-03-26T13:54:39.544Z,47.04
2018-03-26T13:57:05.653Z,47.19
2018-03-26T13:59:31.652Z,47.81
2018-03-26T14:01:57.690Z,48.96
2018-03-26T14:04:23.692Z,48.09
2018-03-26T14:06:49.738Z,48.11
2018-03-26T14:09:27.896Z,48.35
2018-03-26T14:12:06.250Z,49.19
2018-03-26T14:14:44.406Z,49.23
2018-03-26T14:17:22.614Z,49.84
2018-03-26T14:19:48.684Z,49.42
2018-03-26T14:22:14.723Z,49.93
2018-03-26T14:24:40.766Z,49.85
2018-03-26T14:27:06.827Z,49.56
2018-03-26T14:29:32.904Z,50.09
2018-03-26T14:31:58.932Z,49.49
2018-03-26T14:34:24.990Z,49.47
2018-03-26T14:36:51.037Z,48.75
2018-03-26T14:39:17.066Z,49.12
2018-03-26T14:41:43.094Z,49.09
2018-03-26T14:44:09.169Z,50.05
2018-03-26T14:46:35.214Z,49.18
2018-03-26T14:49:01.304Z,48.85
2018-03-26T14:51:27.328Z,48.70
2018-03-26T14:53:53.434Z,48.85
2018-03-26T14:56:19.412Z,48.69
2018-03-26T14:58:45.451Z,48.37
2018-03-26T15:01:11.528Z,48.51
2018-03-26T15:03:37.571Z,49.52
2018-03-26T15:06:03.697Z,48.45
2018-03-26T15:08:29.751Z,48.73
2018-03-26T15:10:55.818Z,49.18
2018-03-26T15:13:21.846Z,49.24
2018-03-26T15:15:47.888Z,50.40
2018-03-26T15:18:13.952Z,49.75
2018-03-26T15:20:39.991Z,49.68
2018-03-26T15:23:06.110Z,50.06
2018-03-26T15:25:32.176Z,50.57
2018-03-26T15:27:58.397Z,50.31
2018-03-26T15:30:24.509Z,50.75
2018-03-26T15:32:50.506Z,50.85
2018-03-26T15:35:16.594Z,51.17
2018-03-26T15:37:42.666Z,51.16
2018-03-26T15:40:08.731Z,51.61
2018-03-26T15:42:34.773Z,52.93
2018-03-26T15:45:00.935Z,53.41
2018-03-26T15:47:26.990Z,53.33
2018-03-26T15:49:53.069Z,53.45
2018-03-26T15:52:19.121Z,53.09
2018-03-26T15:54:45.138Z,53.49
2018-03-26T15:57:11.157Z,53.84
2018-03-26T15:59:37.277Z,53.94
2018-03-26T16:02:03.134Z,53.63
2018-03-26T16:04:29.200Z,53.61
2018-03-26T16:06:55.347Z,54.00
2018-03-26T16:09:21.388Z,55.32
2018-03-26T16:11:47.411Z,55.53
2018-03-26T16:14:13.427Z,56.62
2018-03-26T16:16:39.468Z,56.78
2018-03-26T16:19:05.817Z,57.35
2018-03-26T16:21:31.852Z,57.83
2018-03-26T16:23:59.025Z,58.00
2018-03-26T16:26:25.294Z,58.32
2018-03-26T16:28:51.432Z,58.52
2018-03-26T16:31:17.446Z,58.74
2018-03-26T16:33:43.900Z,58.59
2018-03-26T16:36:09.924Z,58.90
2018-03-26T16:38:36.017Z,59.27
2018-03-26T16:41:02.152Z,59.54
2018-03-26T16:43:28.692Z,59.76
2018-03-26T16:45:54.764Z,59.74
2018-03-26T16:48:20.818Z,59.64
2018-03-26T16:50:46.899Z,60.04
2018-03-26T16:53:12.985Z,60.36
2018-03-26T16:55:39.026Z,60.76
2018-03-26T16:58:05.100Z,60.99
2018-03-26T17:00:31.562Z,61.15
2018-03-26T17:02:57.704Z,61.23
2018-03-26T17:05:23.764Z,61.51
2018-03-26T17:07:49.848Z,61.35
2018-03-26T17:10:15.913Z,61.60
2018-03-26T17:12:41.996Z,61.53
2018-03-26T17:15:08.029Z,61.73
2018-03-26T17:17:34.073Z,61.85
2018-03-26T17:20:00.157Z,62.01
2018-03-26T17:22:26.204Z,61.58
2018-03-26T17:24:52.235Z,61.93
2018-03-26T17:27:18.286Z,61.87
2018-03-26T17:29:44.318Z,62.27
2018-03-26T17:32:10.382Z,62.29
2018-03-26T17:34:36.473Z,62.60
2018-03-26T17:37:02.493Z,62.71
2018-03-26T17:39:28.573Z,62.64
2018-03-26T17:41:55.485Z,62.05
2018-03-26T17:44:21.606Z,62.38
2018-03-26T17:46:47.662Z,61.63
2018-03-26T17:49:13.706Z,61.78
2018-03-26T17:51:39.756Z,61.37
2018-03-26T17:54:05.857Z,60.94
2018-03-26T17:56:31.885Z,61.62
2018-03-26T17:58:57.968Z,61.44
2018-03-26T18:01:24.081Z,62.43
2018-03-26T18:03:50.154Z,63.06
2018-03-26T18:06:16.690Z,62.87
2018-03-26T18:08:42.760Z,63.10
2018-03-26T18:11:08.880Z,62.98
2018-03-26T18:13:35.092Z,63.28
2018-03-26T18:16:01.134Z,63.38
2018-03-26T18:18:27.145Z,63.26
2018-03-26T18:20:53.221Z,63.83
2018-03-26T18:23:19.259Z,64.10
2018-03-26T18:25:45.289Z,63.55
2018-03-26T18:28:11.384Z,63.95
2018-03-26T18:30:37.461Z,64.74
2018-03-26T18:33:03.477Z,64.83
2018-03-26T18:35:29.518Z,64.32
2018-03-26T18:37:55.579Z,64.27
2018-03-26T18:40:21.655Z,63.94
2018-03-26T18:42:47.693Z,64.13
2018-03-26T18:45:13.702Z,64.93
2018-03-26T18:47:39.789Z,64.83
2018-03-26T18:50:05.841Z,64.96
2018-03-26T18:52:31.905Z,64.52
2018-03-26T18:54:57.966Z,65.10
2018-03-26T18:57:24.266Z,64.95
2018-03-26T18:59:50.332Z,64.96
2018-03-26T19:02:16.420Z,66.06
2018-03-26T19:04:42.516Z,66.23
2018-03-26T19:07:08.732Z,65.01
2018-03-26T19:09:34.777Z,65.31
2018-03-26T19:12:00.841Z,67.34
2018-03-26T19:14:26.967Z,68.24
2018-03-26T19:16:53.112Z,67.27
2018-03-26T19:19:19.186Z,66.86
2018-03-26T19:21:45.260Z,67.36
2018-03-26T19:24:11.350Z,66.82
2018-03-26T19:26:37.437Z,66.54
2018-03-26T19:29:03.461Z,66.68
2018-03-26T19:31:29.542Z,66.97
2018-03-26T19:33:55.562Z,66.63
2018-03-26T19:36:21.633Z,66.49
2018-03-26T19:38:47.655Z,67.25
2018-03-26T19:41:13.756Z,67.60
2018-03-26T19:43:39.824Z,66.91
2018-03-26T19:46:05.945Z,66.98
2018-03-26T19:48:32.072Z,67.21
2018-03-26T19:50:58.193Z,69.38
2018-03-26T19:53:24.731Z,68.31
2018-03-26T19:55:50.747Z,68.14
2018-03-26T19:58:17.024Z,68.17
2018-03-26T20:00:48.691Z,68.66
2018-03-26T20:03:18.323Z,69.32
2018-03-26T20:05:44.432Z,69.06
2018-03-26T20:08:10.637Z,68.68
2018-03-26T20:10:36.745Z,68.98
2018-03-26T20:13:02.925Z,69.15
2018-03-26T20:15:29.261Z,71.11
2018-03-26T20:17:55.539Z,72.23
2018-03-26T20:20:21.744Z,72.30
2018-03-26T20:22:48.099Z,72.91
2018-03-26T20:25:14.174Z,72.83
2018-03-26T20:27:40.198Z,73.02
2018-03-26T20:30:06.240Z,73.15
2018-03-26T20:32:32.938Z,72.47
2018-03-26T20:34:59.054Z,72.15
2018-03-26T20:37:25.086Z,71.80
2018-03-26T20:39:51.286Z,72.42
2018-03-26T20:42:17.333Z,73.26
2018-03-26T20:44:43.350Z,73.20
2018-03-26T20:47:09.507Z,72.65
2018-03-26T20:49:35.488Z,72.76
2018-03-26T20:52:01.513Z,72.39
2018-03-26T20:54:27.555Z,72.06
2018-03-26T20:56:53.604Z,72.53
2018-03-26T20:59:19.675Z,72.83
2018-03-26T21:01:45.750Z,72.74
2018-03-26T21:04:11.803Z,72.23
2018-03-26T21:06:37.799Z,72.33
2018-03-26T21:09:03.815Z,73.44
2018-03-26T21:11:29.843Z,74.92
2018-03-26T21:13:56.363Z,74.23
2018-03-26T21:16:22.393Z,74.50
2018-03-26T21:18:48.431Z,74.43
2018-03-26T21:21:14.569Z,75.18
2018-03-26T21:23:40.714Z,74.74
2018-03-26T21:26:06.745Z,74.66
2018-03-26T21:28:32.825Z,74.90
2018-03-26T21:30:58.878Z,75.30
2018-03-26T21:33:24.920Z,75.26
2018-03-26T21:35:50.960Z,75.64
2018-03-26T21:38:17.076Z,75.90
2018-03-26T21:40:43.111Z,76.53
2018-03-26T21:43:09.186Z,76.48
2018-03-26T21:45:35.254Z,76.41
2018-03-26T21:48:01.304Z,76.14
2018-03-26T21:50:27.298Z,76.18
2018-03-26T21:52:53.347Z,76.21
2018-03-26T21:55:19.362Z,76.50
2018-03-26T21:57:45.414Z,76.27
2018-03-26T22:00:16.330Z,76.15
2018-03-26T22:02:42.402Z,76.22
2018-03-26T22:05:08.429Z,76.01
2018-03-26T22:07:34.497Z,75.66
2018-03-26T22:10:00.574Z,76.15
2018-03-26T22:12:26.580Z,76.76
2018-03-26T22:14:52.622Z,77.09
2018-03-26T22:17:18.691Z,78.46
2018-03-26T22:19:44.705Z,79.00
2018-03-26T22:22:11.344Z,78.12
2018-03-26T22:24:37.438Z,77.27
2018-03-26T22:27:03.491Z,76.88
2018-03-26T22:29:29.545Z,76.93
2018-03-26T22:31:55.574Z,76.94
2018-03-26T22:34:24.570Z,76.90
2018-03-26T22:36:50.801Z,78.16
2018-03-26T22:39:18.409Z,78.12
2018-03-26T22:41:44.616Z,77.00
2018-03-26T22:44:10.945Z,76.95
2018-03-26T22:56:23.059Z,79.22
2018-03-26T22:58:49.943Z,79.36
2018-03-26T23:01:16.138Z,80.08
2018-03-26T23:03:42.280Z,79.81
2018-03-26T23:06:08.740Z,79.93
2018-03-26T23:08:34.857Z,81.19
2018-03-26T23:11:01.091Z,80.58
2018-03-26T23:13:27.273Z,79.63
2018-03-26T23:15:53.424Z,79.30
2018-03-26T23:18:19.815Z,79.15
2018-03-26T23:20:46.222Z,79.26
2018-03-26T23:23:12.345Z,78.79
2018-03-26T23:25:38.514Z,79.22
2018-03-26T23:28:04.682Z,79.72
2018-03-26T23:30:30.865Z,80.26
2018-03-26T23:32:57.012Z,80.94
2018-03-26T23:35:23.172Z,80.33
2018-03-26T23:37:49.331Z,81.07
2018-03-26T23:40:15.452Z,81.43
2018-03-26T23:42:41.575Z,80.95
2018-03-26T23:45:07.704Z,80.23
2018-03-26T23:47:33.774Z,80.06
2018-03-26T23:49:59.885Z,80.80
2018-03-26T23:52:25.991Z,80.60
2018-03-26T23:54:52.054Z,81.24
2018-03-26T23:57:18.141Z,80.77
2018-03-26T23:59:44.244Z,80.93
